Time;durP1;ratioP1;P1;durP2;ratioP2;P2;SDS_P1;SDS_P2;PMS_P1;PMS_P2;Temp;Humidity;BMP_temperature;BMP_pressure;BME280_temperature;BME280_humidity;BME280_pressure;Samples;Min_cycle;Max_cycle;Signal;HPM_P1;HPM_P2
2022/01/20 00:00:16;;;;;;;3.85;2.80;;;;;;;;;;5047025;28;20025;-80
2022/01/20 00:02:42;;;;;;;5.28;2.47;;;;;;;;;;5045785;28;20049;-79
2022/01/20 00:09:15;;;;;;;3.63;2.67;;;;;;;;;;5045988;28;20037;-80
2022/01/20 00:27:15;;;;;;;4.07;2.67;;;;;;;;;;5044677;28;20047;-78
2022/01/20 00:30:22;;;;;;;3.58;2.53;;;;;;;;;;5046204;28;20036;-78
2022/01/20 00:37:15;;;;;;;4.30;2.70;;;;;;;;;;5025024;28;20038;-79
2022/01/20 00:38:18;;;;;;;3.08;2.30;;;;;;;;;;5043173;28;20040;-79
2022/01/20 00:40:44;;;;;;;2.58;2.03;;;;;;;;;;5043961;28;20030;-79
2022/01/20 00:43:09;;;;;;;5.60;2.78;;;;;;;;;;5043433;28;20032;-80
2022/01/20 00:45:34;;;;;;;3.65;2.60;;;;;;;;;;5043194;28;20021;-79
2022/01/20 00:48:00;;;;;;;4.13;2.33;;;;;;;;;;5043838;28;20025;-79
2022/01/20 00:50:25;;;;;;;4.13;2.28;;;;;;;;;;5042217;28;20045;-80
2022/01/20 00:52:51;;;;;;;4.55;2.90;;;;;;;;;;5044523;28;20453;-79
2022/01/20 00:55:17;;;;;;;5.38;2.67;;;;;;;;;;5043867;28;20045;-80
2022/01/20 00:57:42;;;;;;;5.13;3.20;;;;;;;;;;5045140;28;20538;-78
2022/01/20 01:00:10;;;;;;;4.55;3.10;;;;;;;;;;5026875;28;20083;-78
2022/01/20 01:02:35;;;;;;;2.92;2.22;;;;;;;;;;5043147;28;20029;-80
2022/01/20 01:05:02;;;;;;;3.95;2.67;;;;;;;;;;5043892;28;20025;-80
2022/01/20 01:07:44;;;;;;;3.80;2.55;;;;;;;;;;5043603;28;20044;-79
2022/01/20 01:10:11;;;;;;;4.32;2.90;;;;;;;;;;5025950;28;20017;-79
2022/01/20 01:13:02;;;;;;;4.32;2.78;;;;;;;;;;5043646;28;20106;-79
2022/01/20 01:15:28;;;;;;;4.82;2.65;;;;;;;;;;5043366;28;20049;-79
2022/01/20 01:23:24;;;;;;;4.30;2.90;;;;;;;;;;5044081;28;20041;-80
2022/01/20 01:25:49;;;;;;;3.15;2.00;;;;;;;;;;5043189;28;20029;-80
2022/01/20 01:28:16;;;;;;;5.30;2.50;;;;;;;;;;5043496;28;20044;-80
2022/01/20 01:31:06;;;;;;;4.07;2.35;;;;;;;;;;5042118;28;20048;-81
2022/01/20 01:33:30;;;;;;;3.15;2.22;;;;;;;;;;5044021;28;20030;-80
2022/01/20 01:35:58;;;;;;;4.32;2.10;;;;;;;;;;5025844;28;20047;-79
2022/01/20 01:38:36;;;;;;;3.33;2.40;;;;;;;;;;5043810;28;20025;-79
2022/01/20 01:41:04;;;;;;;4.90;2.50;;;;;;;;;;5044932;28;20029;-81
2022/01/20 01:43:31;;;;;;;3.53;2.15;;;;;;;;;;5042956;28;20027;-79
2022/01/20 01:45:57;;;;;;;2.78;2.00;;;;;;;;;;5043270;28;20032;-81
2022/01/20 01:48:22;;;;;;;3.13;2.28;;;;;;;;;;5042625;28;20017;-81
2022/01/20 01:50:47;;;;;;;4.03;2.22;;;;;;;;;;5042119;28;20076;-81
2022/01/20 01:53:14;;;;;;;3.30;2.30;;;;;;;;;;5043439;28;20037;-78
2022/01/20 01:55:40;;;;;;;3.13;2.10;;;;;;;;;;5042619;28;20035;-81
2022/01/20 01:58:05;;;;;;;3.47;1.88;;;;;;;;;;5042958;28;20061;-80
2022/01/20 02:00:32;;;;;;;4.82;1.67;;;;;;;;;;5042739;28;20414;-81
2022/01/20 02:02:58;;;;;;;3.15;2.08;;;;;;;;;;5042813;28;20096;-80
2022/01/20 02:05:24;;;;;;;5.55;2.05;;;;;;;;;;5042623;28;20490;-78
2022/01/20 02:18:51;;;;;;;6.82;2.15;;;;;;;;;;5046403;28;20079;-80
2022/01/20 02:21:17;;;;;;;7.88;2.15;;;;;;;;;;5046278;28;20034;-79
2022/01/20 02:23:45;;;;;;;5.22;1.75;;;;;;;;;;5046901;28;20075;-81
2022/01/20 02:26:10;;;;;;;5.55;2.08;;;;;;;;;;5047266;28;20558;-79
2022/01/20 02:28:36;;;;;;;4.70;1.75;;;;;;;;;;5045522;28;20037;-80
2022/01/20 02:31:01;;;;;;;5.90;1.75;;;;;;;;;;5046504;28;20034;-80
2022/01/20 02:33:29;;;;;;;7.53;1.40;;;;;;;;;;5045444;28;20139;-82
2022/01/20 02:36:04;;;;;;;8.25;1.60;;;;;;;;;;5046340;28;20029;-81
2022/01/20 02:46:29;;;;;;;8.05;1.70;;;;;;;;;;5047104;28;20028;-79
2022/01/20 02:48:54;;;;;;;8.55;1.65;;;;;;;;;;5047066;28;20033;-80
2022/01/20 02:51:19;;;;;;;6.10;1.30;;;;;;;;;;5045974;28;20491;-79
2022/01/20 02:53:44;;;;;;;8.30;1.83;;;;;;;;;;5029201;28;20032;-79
2022/01/20 02:56:10;;;;;;;10.80;1.50;;;;;;;;;;5046809;28;20026;-79
2022/01/20 02:58:35;;;;;;;4.43;1.67;;;;;;;;;;5047523;28;20017;-79
2022/01/20 03:01:01;;;;;;;9.60;1.83;;;;;;;;;;5047216;28;20021;-79
2022/01/20 03:03:26;;;;;;;10.07;1.60;;;;;;;;;;5047397;28;20025;-80
2022/01/20 03:05:51;;;;;;;10.73;1.80;;;;;;;;;;5045732;28;20029;-80
2022/01/20 03:08:17;;;;;;;5.15;1.60;;;;;;;;;;5045063;28;20080;-79
2022/01/20 03:10:42;;;;;;;10.20;1.80;;;;;;;;;;5045847;28;20025;-80
2022/01/20 03:13:08;;;;;;;8.75;1.75;;;;;;;;;;5045983;28;20499;-79
2022/01/20 03:15:35;;;;;;;10.93;1.75;;;;;;;;;;5044983;28;20043;-79
2022/01/20 03:18:01;;;;;;;7.97;1.90;;;;;;;;;;5043900;28;20032;-79
2022/01/20 03:20:26;;;;;;;12.60;2.05;;;;;;;;;;5045608;28;20034;-79
2022/01/20 03:22:52;;;;;;;8.80;1.70;;;;;;;;;;5047051;28;20033;-80
2022/01/20 03:25:17;;;;;;;8.68;1.73;;;;;;;;;;5045600;28;20105;-79
2022/01/20 03:27:42;;;;;;;5.60;1.27;;;;;;;;;;5045944;28;20100;-80
2022/01/20 03:30:08;;;;;;;9.65;2.00;;;;;;;;;;5044669;28;20418;-79
2022/01/20 03:32:34;;;;;;;5.07;1.35;;;;;;;;;;5041703;28;20026;-81
2022/01/20 03:35:00;;;;;;;13.10;1.75;;;;;;;;;;5042316;28;20040;-80
2022/01/20 03:37:25;;;;;;;10.68;1.70;;;;;;;;;;5044657;28;20028;-81
2022/01/20 03:39:50;;;;;;;12.45;1.92;;;;;;;;;;5046914;28;20032;-80
2022/01/20 03:42:15;;;;;;;9.15;1.02;;;;;;;;;;5045273;28;20040;-80
2022/01/20 03:44:41;;;;;;;10.00;1.75;;;;;;;;;;5044274;28;20079;-80
2022/01/20 03:47:08;;;;;;;9.10;1.40;;;;;;;;;;5046511;28;20024;-79
2022/01/20 03:49:40;;;;;;;10.50;1.80;;;;;;;;;;5046620;28;20036;-79
2022/01/20 03:52:06;;;;;;;19.50;1.58;;;;;;;;;;5044252;28;20030;-78
2022/01/20 03:54:32;;;;;;;10.65;1.60;;;;;;;;;;5046336;28;20085;-80
2022/01/20 03:56:57;;;;;;;5.60;1.35;;;;;;;;;;5044644;28;20033;-81
2022/01/20 03:59:23;;;;;;;12.13;1.77;;;;;;;;;;5046010;28;20025;-80
2022/01/20 04:01:48;;;;;;;11.90;1.40;;;;;;;;;;5045770;28;20029;-79
2022/01/20 04:04:14;;;;;;;5.82;1.13;;;;;;;;;;5045960;28;20025;-80
2022/01/20 04:06:39;;;;;;;10.40;1.38;;;;;;;;;;5045575;28;20029;-79
2022/01/20 04:09:05;;;;;;;9.65;1.55;;;;;;;;;;5045450;28;20029;-79
2022/01/20 04:11:31;;;;;;;7.13;1.20;;;;;;;;;;5044241;28;20033;-81
2022/01/20 04:13:57;;;;;;;11.13;1.50;;;;;;;;;;5027397;28;20026;-80
2022/01/20 04:16:39;;;;;;;9.15;1.42;;;;;;;;;;5044832;28;20091;-79
2022/01/20 04:19:07;;;;;;;9.02;1.30;;;;;;;;;;5044314;28;20017;-77
2022/01/20 04:21:34;;;;;;;8.98;1.00;;;;;;;;;;5045719;28;20029;-81
2022/01/20 04:24:01;;;;;;;6.60;1.10;;;;;;;;;;5044640;28;20036;-78
2022/01/20 04:26:28;;;;;;;2.38;0.88;;;;;;;;;;5026602;28;20025;-79
2022/01/20 04:28:55;;;;;;;6.05;1.15;;;;;;;;;;5027243;28;20017;-80
2022/01/20 04:31:21;;;;;;;6.25;1.00;;;;;;;;;;5042556;28;20032;-80
2022/01/20 04:33:46;;;;;;;4.10;1.10;;;;;;;;;;5039577;28;20487;-80
2022/01/20 04:36:12;;;;;;;7.85;1.25;;;;;;;;;;5041069;28;20040;-78
2022/01/20 04:38:37;;;;;;;6.70;1.38;;;;;;;;;;5041780;28;20495;-78
2022/01/20 04:41:02;;;;;;;9.52;1.23;;;;;;;;;;5043275;28;20031;-79
2022/01/20 04:43:28;;;;;;;9.57;1.45;;;;;;;;;;5042249;28;20014;-79
2022/01/20 04:46:02;;;;;;;8.05;1.10;;;;;;;;;;5041892;28;20021;-79
2022/01/20 04:59:07;;;;;;;5.03;0.98;;;;;;;;;;5044646;28;20036;-79
2022/01/20 05:01:33;;;;;;;6.38;1.15;;;;;;;;;;5043147;28;20029;-79
2022/01/20 05:04:01;;;;;;;10.32;1.00;;;;;;;;;;5043600;28;20087;-80
2022/01/20 05:06:26;;;;;;;10.48;1.23;;;;;;;;;;5043173;28;20080;-79
2022/01/20 05:08:52;;;;;;;4.43;1.20;;;;;;;;;;5043290;28;20029;-78
2022/01/20 05:11:18;;;;;;;15.20;1.58;;;;;;;;;;5041422;28;20079;-78
2022/01/20 05:13:43;;;;;;;11.85;1.50;;;;;;;;;;5041970;28;20025;-79
2022/01/20 05:16:08;;;;;;;8.05;1.40;;;;;;;;;;5041519;28;20456;-79
2022/01/20 05:18:34;;;;;;;5.57;1.13;;;;;;;;;;5038806;28;20025;-80
2022/01/20 05:21:00;;;;;;;6.75;1.50;;;;;;;;;;5021643;28;20100;-80
2022/01/20 05:23:25;;;;;;;3.72;0.82;;;;;;;;;;5040383;28;20072;-80
2022/01/20 05:25:50;;;;;;;12.77;1.65;;;;;;;;;;5040632;28;20030;-80
2022/01/20 05:28:16;;;;;;;4.43;0.98;;;;;;;;;;5039789;28;20028;-81
2022/01/20 05:30:44;;;;;;;8.32;1.35;;;;;;;;;;5040400;28;20029;-80
2022/01/20 05:33:09;;;;;;;5.97;1.20;;;;;;;;;;5039606;28;20056;-80
2022/01/20 05:35:37;;;;;;;8.38;1.30;;;;;;;;;;5039000;28;20025;-80
2022/01/20 05:38:03;;;;;;;5.68;1.42;;;;;;;;;;5038620;28;20029;-80
2022/01/20 05:40:28;;;;;;;7.80;1.20;;;;;;;;;;5037825;28;20108;-80
2022/01/20 05:42:54;;;;;;;7.22;1.52;;;;;;;;;;5038764;28;20477;-80
2022/01/20 05:45:20;;;;;;;11.27;1.45;;;;;;;;;;5038027;28;20080;-79
2022/01/20 05:47:48;;;;;;;8.60;1.08;;;;;;;;;;5038119;28;20025;-79
2022/01/20 05:50:16;;;;;;;2.13;1.02;;;;;;;;;;5038157;28;20025;-79
2022/01/20 05:52:41;;;;;;;6.15;1.50;;;;;;;;;;5044432;28;20661;-80
2022/01/20 05:55:12;;;;;;;14.93;1.70;;;;;;;;;;5040965;28;20057;-80
2022/01/20 05:57:37;;;;;;;9.88;1.85;;;;;;;;;;5038013;28;20056;-80
2022/01/20 06:00:08;;;;;;;9.25;1.48;;;;;;;;;;5037958;28;20025;-80
2022/01/20 06:02:36;;;;;;;12.55;2.58;;;;;;;;;;5034768;28;20026;-80
2022/01/20 06:05:04;;;;;;;12.10;2.22;;;;;;;;;;5039029;28;20548;-80
2022/01/20 06:07:29;;;;;;;10.90;1.80;;;;;;;;;;5021184;28;20028;-80
2022/01/20 06:09:54;;;;;;;8.30;1.40;;;;;;;;;;5039737;28;20017;-78
2022/01/20 06:12:20;;;;;;;7.15;1.73;;;;;;;;;;5039391;28;20049;-79
2022/01/20 06:14:45;;;;;;;6.53;1.27;;;;;;;;;;5021635;28;20487;-79
2022/01/20 06:17:10;;;;;;;10.50;1.27;;;;;;;;;;5039019;28;20049;-80
2022/01/20 06:19:36;;;;;;;6.70;1.30;;;;;;;;;;5039146;28;20029;-81
2022/01/20 06:22:01;;;;;;;16.23;1.73;;;;;;;;;;5039077;28;20025;-81
2022/01/20 06:24:26;;;;;;;8.38;1.70;;;;;;;;;;5039282;28;20029;-80
2022/01/20 06:26:51;;;;;;;7.15;1.38;;;;;;;;;;5040086;28;20029;-79
2022/01/20 06:29:17;;;;;;;5.88;1.20;;;;;;;;;;5040433;28;20032;-81
2022/01/20 06:31:42;;;;;;;15.93;1.95;;;;;;;;;;5041502;28;20064;-80
2022/01/20 06:34:07;;;;;;;10.32;1.60;;;;;;;;;;5041029;28;20021;-80
2022/01/20 06:36:32;;;;;;;6.97;1.40;;;;;;;;;;5041557;28;20032;-80
2022/01/20 06:38:58;;;;;;;9.52;2.08;;;;;;;;;;5024211;28;20028;-80
2022/01/20 06:41:26;;;;;;;14.18;1.90;;;;;;;;;;5042075;28;20088;-78
2022/01/20 06:43:51;;;;;;;12.93;2.00;;;;;;;;;;5040593;28;20024;-80
2022/01/20 06:46:17;;;;;;;9.95;1.48;;;;;;;;;;5042382;28;20037;-79
2022/01/20 06:48:42;;;;;;;9.65;1.50;;;;;;;;;;5042757;28;20022;-80
2022/01/20 06:51:07;;;;;;;18.77;1.95;;;;;;;;;;5041250;28;20391;-79
2022/01/20 06:53:33;;;;;;;16.67;2.10;;;;;;;;;;5043595;28;20076;-80
2022/01/20 06:55:58;;;;;;;12.23;1.67;;;;;;;;;;5042536;28;20041;-79
2022/01/20 06:58:23;;;;;;;10.32;1.88;;;;;;;;;;5045646;28;20079;-79
2022/01/20 07:00:49;;;;;;;13.63;1.73;;;;;;;;;;5046459;28;20022;-80
2022/01/20 07:03:14;;;;;;;14.23;1.98;;;;;;;;;;5045711;28;20124;-79
2022/01/20 07:05:40;;;;;;;10.32;1.90;;;;;;;;;;5028884;28;20017;-80
2022/01/20 07:08:05;;;;;;;5.53;1.00;;;;;;;;;;5026720;28;20045;-78
2022/01/20 07:10:30;;;;;;;7.95;1.35;;;;;;;;;;5044458;28;20507;-79
2022/01/20 07:12:55;;;;;;;11.35;1.83;;;;;;;;;;5043856;28;20032;-78
2022/01/20 07:15:21;;;;;;;7.22;1.73;;;;;;;;;;5045619;28;20129;-79
2022/01/20 07:17:46;;;;;;;5.20;1.25;;;;;;;;;;5045376;28;20043;-79
2022/01/20 07:20:13;;;;;;;3.72;1.10;;;;;;;;;;5044815;28;20089;-79
2022/01/20 07:22:39;;;;;;;5.95;1.05;;;;;;;;;;5043940;28;20107;-81
2022/01/20 07:25:04;;;;;;;6.32;1.33;;;;;;;;;;5044041;28;20125;-80
2022/01/20 07:27:29;;;;;;;6.68;1.58;;;;;;;;;;5043866;28;20040;-79
2022/01/20 07:29:55;;;;;;;2.75;0.98;;;;;;;;;;5027719;28;20021;-80
2022/01/20 07:32:20;;;;;;;5.97;1.10;;;;;;;;;;5044096;28;20073;-81
2022/01/20 07:34:46;;;;;;;3.60;0.95;;;;;;;;;;5045192;28;20085;-79
2022/01/20 07:37:11;;;;;;;1.40;0.70;;;;;;;;;;5042492;28;20029;-79
2022/01/20 07:39:36;;;;;;;6.50;1.10;;;;;;;;;;5043160;28;20025;-79
2022/01/20 07:42:02;;;;;;;6.50;1.00;;;;;;;;;;5026183;28;20067;-79
2022/01/20 07:44:27;;;;;;;3.05;0.70;;;;;;;;;;5042772;28;20064;-80
2022/01/20 07:46:53;;;;;;;3.47;0.80;;;;;;;;;;5042031;28;20033;-78
2022/01/20 07:49:18;;;;;;;4.35;0.52;;;;;;;;;;5025295;28;20084;-78
2022/01/20 07:51:44;;;;;;;2.05;0.55;;;;;;;;;;5043035;28;20029;-81
2022/01/20 07:54:09;;;;;;;5.40;1.38;;;;;;;;;;5044353;28;20021;-81
2022/01/20 07:56:34;;;;;;;2.22;1.13;;;;;;;;;;5026912;28;20048;-79
2022/01/20 07:59:00;;;;;;;3.40;0.75;;;;;;;;;;5043665;28;20025;-79
2022/01/20 08:01:25;;;;;;;1.23;0.70;;;;;;;;;;5043955;28;20032;-81
2022/01/20 08:03:53;;;;;;;3.92;1.00;;;;;;;;;;5045675;28;20022;-79
2022/01/20 08:06:19;;;;;;;5.03;1.15;;;;;;;;;;5046933;28;20510;-79
2022/01/20 08:08:46;;;;;;;4.88;1.20;;;;;;;;;;5044525;28;20025;-79
2022/01/20 08:11:11;;;;;;;1.48;0.65;;;;;;;;;;5043846;28;20022;-78
2022/01/20 08:13:37;;;;;;;3.95;0.70;;;;;;;;;;5043612;28;20029;-79
2022/01/20 08:16:02;;;;;;;1.58;0.50;;;;;;;;;;5045219;28;20077;-77
2022/01/20 08:18:27;;;;;;;5.22;0.80;;;;;;;;;;5042736;28;20443;-80
2022/01/20 08:20:52;;;;;;;6.22;0.98;;;;;;;;;;5043226;28;20030;-78
2022/01/20 08:23:18;;;;;;;1.98;0.80;;;;;;;;;;5042611;28;20028;-79
2022/01/20 08:25:43;;;;;;;7.57;1.08;;;;;;;;;;5040816;28;20091;-80
2022/01/20 08:28:08;;;;;;;3.85;0.63;;;;;;;;;;5042890;28;20033;-80
2022/01/20 08:30:33;;;;;;;10.20;1.30;;;;;;;;;;5042080;28;20025;-79
2022/01/20 08:33:00;;;;;;;8.57;0.90;;;;;;;;;;5045616;28;20036;-79
2022/01/20 08:35:26;;;;;;;10.98;1.30;;;;;;;;;;5028471;28;20081;-80
2022/01/20 08:37:51;;;;;;;3.17;0.82;;;;;;;;;;5044712;28;20036;-80
2022/01/20 08:40:22;;;;;;;7.28;0.90;;;;;;;;;;5025563;28;20083;-80
2022/01/20 08:42:48;;;;;;;13.10;1.58;;;;;;;;;;5040042;28;20036;-81
2022/01/20 08:45:15;;;;;;;3.47;1.10;;;;;;;;;;5038793;28;20025;-82
2022/01/20 08:47:42;;;;;;;6.72;1.23;;;;;;;;;;5038240;28;20075;-80
2022/01/20 08:50:09;;;;;;;5.53;1.10;;;;;;;;;;5037669;28;20022;-81
2022/01/20 08:52:34;;;;;;;6.30;0.80;;;;;;;;;;5038299;28;20057;-81
2022/01/20 08:55:00;;;;;;;2.63;0.80;;;;;;;;;;5039578;28;20076;-80
2022/01/20 08:57:27;;;;;;;6.68;1.27;;;;;;;;;;5040242;28;20021;-80
2022/01/20 08:59:52;;;;;;;2.08;0.80;;;;;;;;;;5041833;28;20036;-81
2022/01/20 09:02:18;;;;;;;2.70;0.82;;;;;;;;;;5042116;28;20048;-80
2022/01/20 09:04:46;;;;;;;3.00;0.98;;;;;;;;;;5041847;28;20025;-80
2022/01/20 09:07:12;;;;;;;7.82;0.90;;;;;;;;;;5040495;28;20060;-80
2022/01/20 09:09:42;;;;;;;4.38;1.08;;;;;;;;;;5041636;28;20037;-79
2022/01/20 09:17:31;;;;;;;6.35;1.17;;;;;;;;;;5041053;28;20123;-79
2022/01/20 09:19:58;;;;;;;8.60;1.58;;;;;;;;;;5040922;28;20029;-79
2022/01/20 09:22:25;;;;;;;3.22;0.70;;;;;;;;;;5038968;28;20031;-79
2022/01/20 09:24:50;;;;;;;3.80;1.02;;;;;;;;;;5040338;28;20045;-80
2022/01/20 09:27:15;;;;;;;4.53;1.20;;;;;;;;;;5041414;28;20070;-79
2022/01/20 09:29:41;;;;;;;2.85;0.68;;;;;;;;;;5040560;28;20044;-80
2022/01/20 09:32:09;;;;;;;5.65;0.88;;;;;;;;;;5041293;28;20100;-79
2022/01/20 09:34:35;;;;;;;3.70;0.80;;;;;;;;;;5040843;28;20021;-80
2022/01/20 09:37:01;;;;;;;9.52;1.00;;;;;;;;;;5039766;28;20376;-79
2022/01/20 09:39:26;;;;;;;3.38;0.70;;;;;;;;;;5039678;28;20049;-78
2022/01/20 09:41:52;;;;;;;4.47;0.70;;;;;;;;;;5040633;28;20450;-80
2022/01/20 09:44:17;;;;;;;4.55;0.77;;;;;;;;;;5040369;28;20061;-80
2022/01/20 09:46:45;;;;;;;3.25;0.88;;;;;;;;;;5037077;28;20026;-80
2022/01/20 09:49:11;;;;;;;4.55;0.80;;;;;;;;;;5037781;28;20156;-80
2022/01/20 09:51:37;;;;;;;9.15;1.92;;;;;;;;;;5038783;28;20028;-79
2022/01/20 09:54:04;;;;;;;10.10;1.10;;;;;;;;;;5038464;28;20549;-78
2022/01/20 09:56:30;;;;;;;9.00;1.48;;;;;;;;;;5038172;28;20030;-79
2022/01/20 09:58:55;;;;;;;2.25;0.77;;;;;;;;;;5038512;28;20504;-79
2022/01/20 10:01:56;;;;;;;2.92;0.68;;;;;;;;;;5023055;28;20501;-79
2022/01/20 10:04:29;;;;;;;6.80;1.35;;;;;;;;;;4980688;28;20040;-80
2022/01/20 10:06:57;;;;;;;11.30;1.23;;;;;;;;;;5038744;28;20032;-80
2022/01/20 10:09:36;;;;;;;3.08;0.60;;;;;;;;;;5039999;28;20036;-80
2022/01/20 10:12:02;;;;;;;10.73;1.60;;;;;;;;;;5039717;28;20168;-81
2022/01/20 10:14:44;;;;;;;5.25;1.00;;;;;;;;;;5039777;28;20033;-79
2022/01/20 10:17:18;;;;;;;5.45;1.35;;;;;;;;;;5040629;28;20022;-79
2022/01/20 10:19:43;;;;;;;19.20;1.60;;;;;;;;;;5044766;28;20112;-80
2022/01/20 10:22:15;;;;;;;11.20;1.35;;;;;;;;;;5043813;28;20017;-80
2022/01/20 10:24:41;;;;;;;6.97;1.38;;;;;;;;;;5045485;28;20064;-80
2022/01/20 10:27:11;;;;;;;3.15;0.93;;;;;;;;;;5025907;28;20032;-80
2022/01/20 10:29:37;;;;;;;11.90;1.42;;;;;;;;;;5042387;28;20423;-80
2022/01/20 10:32:03;;;;;;;9.43;1.40;;;;;;;;;;5044291;28;20079;-80
2022/01/20 10:34:35;;;;;;;8.45;1.25;;;;;;;;;;5044737;28;20060;-79
2022/01/20 10:37:12;;;;;;;8.93;1.50;;;;;;;;;;5042025;28;20029;-80
2022/01/20 10:39:44;;;;;;;7.55;1.70;;;;;;;;;;5043648;28;20025;-79
2022/01/20 10:42:20;;;;;;;8.93;1.13;;;;;;;;;;5044994;28;20022;-79
2022/01/20 10:44:51;;;;;;;7.78;1.38;;;;;;;;;;5046731;28;20029;-79
2022/01/20 10:47:31;;;;;;;8.65;1.48;;;;;;;;;;5045738;28;20025;-79
2022/01/20 10:50:09;;;;;;;10.35;1.42;;;;;;;;;;5046745;28;20053;-79
2022/01/20 10:52:35;;;;;;;5.10;1.30;;;;;;;;;;5044804;28;20076;-79
2022/01/20 10:55:01;;;;;;;10.70;1.60;;;;;;;;;;5042446;28;20390;-79
2022/01/20 10:57:35;;;;;;;2.10;0.60;;;;;;;;;;5045164;28;20033;-80
2022/01/20 11:00:09;;;;;;;6.57;1.17;;;;;;;;;;5044831;28;20030;-81
2022/01/20 11:02:35;;;;;;;4.95;0.93;;;;;;;;;;5046235;28;20025;-81
2022/01/20 11:05:00;;;;;;;7.88;2.00;;;;;;;;;;5041239;28;20545;-79
2022/01/20 11:07:30;;;;;;;5.90;0.90;;;;;;;;;;5044060;28;20025;-78
2022/01/20 11:09:59;;;;;;;5.70;0.88;;;;;;;;;;5047278;28;20047;-81
2022/01/20 11:12:24;;;;;;;6.90;1.33;;;;;;;;;;5048120;28;20037;-80
2022/01/20 11:14:51;;;;;;;3.70;0.90;;;;;;;;;;5048604;28;20040;-81
2022/01/20 11:17:22;;;;;;;5.82;1.30;;;;;;;;;;5046283;28;20148;-80
2022/01/20 11:19:47;;;;;;;5.88;1.35;;;;;;;;;;5044450;28;20577;-79
2022/01/20 11:22:14;;;;;;;7.93;1.30;;;;;;;;;;5045284;28;20041;-79
2022/01/20 11:24:42;;;;;;;13.20;1.70;;;;;;;;;;5044343;28;20025;-80
2022/01/20 11:27:11;;;;;;;4.57;0.90;;;;;;;;;;5047199;28;20021;-80
2022/01/20 11:29:50;;;;;;;13.30;1.55;;;;;;;;;;5047203;28;20026;-81
2022/01/20 11:32:22;;;;;;;6.10;1.23;;;;;;;;;;5046265;28;20029;-79
2022/01/20 11:34:58;;;;;;;10.02;1.48;;;;;;;;;;5046752;28;20025;-80
2022/01/20 11:37:25;;;;;;;7.82;1.50;;;;;;;;;;5028103;28;20395;-79
2022/01/20 11:39:53;;;;;;;5.18;0.90;;;;;;;;;;5027462;28;20075;-79
2022/01/20 11:42:19;;;;;;;7.15;0.90;;;;;;;;;;5044890;28;20051;-81
2022/01/20 11:44:45;;;;;;;10.85;1.85;;;;;;;;;;5046198;28;20091;-80
2022/01/20 11:47:10;;;;;;;9.68;1.60;;;;;;;;;;5045493;28;20089;-80
2022/01/20 11:49:38;;;;;;;8.50;1.63;;;;;;;;;;5046572;28;20033;-80
2022/01/20 11:52:04;;;;;;;12.95;1.23;;;;;;;;;;5027491;28;20034;-80
2022/01/20 11:54:38;;;;;;;4.88;1.15;;;;;;;;;;5028218;28;20104;-80
2022/01/20 11:57:03;;;;;;;11.38;1.35;;;;;;;;;;5044247;28;20040;-80
2022/01/20 11:59:45;;;;;;;12.03;1.60;;;;;;;;;;5045804;28;20097;-81
2022/01/20 12:02:22;;;;;;;19.23;1.95;;;;;;;;;;5044562;28;20243;-80
2022/01/20 12:04:47;;;;;;;5.82;1.35;;;;;;;;;;5044176;28;20081;-80
2022/01/20 12:07:27;;;;;;;5.53;0.70;;;;;;;;;;5044499;28;20049;-80
2022/01/20 12:10:10;;;;;;;9.55;1.50;;;;;;;;;;5043377;28;20040;-80
2022/01/20 12:12:38;;;;;;;7.40;1.50;;;;;;;;;;5025324;28;20021;-80
2022/01/20 12:15:14;;;;;;;5.07;1.10;;;;;;;;;;5043772;28;20057;-81
2022/01/20 12:17:41;;;;;;;12.25;1.55;;;;;;;;;;5043013;28;20053;-80
2022/01/20 12:20:09;;;;;;;7.68;1.15;;;;;;;;;;5041852;28;20043;-80
2022/01/20 12:22:45;;;;;;;6.63;1.40;;;;;;;;;;5043480;28;20025;-80
2022/01/20 12:25:29;;;;;;;6.22;1.70;;;;;;;;;;5043535;28;20026;-80
2022/01/20 12:28:03;;;;;;;12.77;1.40;;;;;;;;;;5044390;28;20086;-80
2022/01/20 12:30:29;;;;;;;7.60;1.25;;;;;;;;;;5045516;28;20088;-79
2022/01/20 12:33:07;;;;;;;5.85;1.50;;;;;;;;;;5044406;28;20044;-80
2022/01/20 12:35:36;;;;;;;7.22;1.55;;;;;;;;;;5026423;28;20091;-79
2022/01/20 12:38:16;;;;;;;3.35;0.93;;;;;;;;;;5045198;28;20057;-82
2022/01/20 12:40:42;;;;;;;11.60;1.52;;;;;;;;;;5044484;28;20037;-80
2022/01/20 12:43:10;;;;;;;8.18;1.20;;;;;;;;;;5025054;28;20017;-79
2022/01/20 12:48:19;;;;;;;7.88;1.45;;;;;;;;;;5043784;28;20040;-78
2022/01/20 12:50:54;;;;;;;5.03;1.10;;;;;;;;;;5041990;28;20033;-81
2022/01/20 12:53:34;;;;;;;8.48;1.45;;;;;;;;;;5041665;28;20017;-79
2022/01/20 12:55:59;;;;;;;4.93;1.05;;;;;;;;;;5041687;28;20021;-78
2022/01/20 12:58:24;;;;;;;6.25;1.52;;;;;;;;;;5040885;28;20099;-79
2022/01/20 13:01:04;;;;;;;3.47;0.68;;;;;;;;;;5040189;28;20027;-80
2022/01/20 13:03:40;;;;;;;4.95;0.98;;;;;;;;;;5022263;28;20541;-79
2022/01/20 13:06:10;;;;;;;13.80;1.38;;;;;;;;;;5040865;28;20032;-81
2022/01/20 13:08:39;;;;;;;16.92;1.73;;;;;;;;;;5039915;28;20029;-79
2022/01/20 13:11:08;;;;;;;6.07;1.35;;;;;;;;;;5039712;28;20033;-81
2022/01/20 13:13:33;;;;;;;4.53;1.45;;;;;;;;;;5039735;28;20022;-80
2022/01/20 13:16:09;;;;;;;10.00;1.40;;;;;;;;;;5039840;28;20029;-80
2022/01/20 13:18:35;;;;;;;5.50;1.25;;;;;;;;;;5043608;28;20032;-80
2022/01/20 13:21:00;;;;;;;11.30;1.48;;;;;;;;;;5040133;28;20117;-79
2022/01/20 13:26:04;;;;;;;6.75;1.45;;;;;;;;;;5043678;28;20032;-79
2022/01/20 13:28:29;;;;;;;6.65;1.15;;;;;;;;;;5041946;28;20057;-79
2022/01/20 13:30:55;;;;;;;9.38;1.23;;;;;;;;;;5042790;28;20028;-79
2022/01/20 13:33:27;;;;;;;10.32;1.42;;;;;;;;;;5023625;28;20475;-79
2022/01/20 13:36:00;;;;;;;7.82;1.20;;;;;;;;;;5024395;28;20025;-81
2022/01/20 13:38:33;;;;;;;6.80;1.23;;;;;;;;;;5041850;28;20025;-81
2022/01/20 13:41:11;;;;;;;5.63;1.25;;;;;;;;;;5023803;28;20312;-80
2022/01/20 13:46:32;;;;;;;10.48;1.50;;;;;;;;;;5027306;28;20273;-80
2022/01/20 13:49:19;;;;;;;10.05;1.48;;;;;;;;;;5041889;28;20021;-80
2022/01/20 13:51:45;;;;;;;7.25;1.23;;;;;;;;;;5042742;28;20021;-79
2022/01/20 13:54:11;;;;;;;5.05;1.00;;;;;;;;;;5043017;28;20021;-78
2022/01/20 13:56:37;;;;;;;5.47;1.08;;;;;;;;;;5042218;28;20033;-79
2022/01/20 13:59:03;;;;;;;6.40;1.52;;;;;;;;;;5040968;28;20400;-80
2022/01/20 14:01:29;;;;;;;5.10;1.23;;;;;;;;;;5042951;28;20025;-81
2022/01/20 14:03:54;;;;;;;6.78;1.15;;;;;;;;;;5042552;28;20425;-81
2022/01/20 14:06:19;;;;;;;5.90;1.40;;;;;;;;;;5043984;28;20029;-80
2022/01/20 14:08:45;;;;;;;5.65;0.95;;;;;;;;;;5043978;28;20052;-81
2022/01/20 14:11:10;;;;;;;5.45;1.17;;;;;;;;;;5046315;28;20029;-79
2022/01/20 14:13:35;;;;;;;10.20;1.40;;;;;;;;;;5044684;28;20060;-80
2022/01/20 14:16:02;;;;;;;5.85;1.10;;;;;;;;;;5046079;28;20025;-80
2022/01/20 14:18:31;;;;;;;6.00;0.80;;;;;;;;;;5028284;28;20021;-82
2022/01/20 14:20:57;;;;;;;3.85;0.80;;;;;;;;;;5045779;28;20033;-82
2022/01/20 14:23:22;;;;;;;7.28;1.45;;;;;;;;;;5045123;28;20123;-79
2022/01/20 14:25:52;;;;;;;6.82;1.40;;;;;;;;;;5044366;28;20053;-80
2022/01/20 14:28:17;;;;;;;6.07;0.82;;;;;;;;;;5044331;28;20057;-80
2022/01/20 14:30:43;;;;;;;3.97;0.93;;;;;;;;;;5026560;28;20108;-79
2022/01/20 14:33:08;;;;;;;6.43;1.60;;;;;;;;;;5044496;28;20029;-80
2022/01/20 14:35:33;;;;;;;6.40;1.13;;;;;;;;;;5043905;28;20057;-80
2022/01/20 14:38:00;;;;;;;6.82;1.30;;;;;;;;;;5042598;28;20502;-80
2022/01/20 14:40:25;;;;;;;6.90;1.30;;;;;;;;;;5043948;28;20486;-81
2022/01/20 14:42:51;;;;;;;8.63;1.63;;;;;;;;;;5042437;28;20089;-79
2022/01/20 14:45:20;;;;;;;5.82;1.42;;;;;;;;;;5041774;28;20037;-80
2022/01/20 14:47:52;;;;;;;7.07;1.30;;;;;;;;;;5042712;28;20021;-80
2022/01/20 14:50:19;;;;;;;10.38;1.15;;;;;;;;;;5042603;28;20075;-78
2022/01/20 14:52:44;;;;;;;14.43;2.08;;;;;;;;;;5043513;28;20025;-80
2022/01/20 14:55:10;;;;;;;9.38;1.33;;;;;;;;;;5043364;28;20029;-81
2022/01/20 14:57:35;;;;;;;3.60;1.00;;;;;;;;;;5044431;28;20431;-81
2022/01/20 15:00:02;;;;;;;7.28;0.85;;;;;;;;;;5028146;28;20033;-80
2022/01/20 15:02:28;;;;;;;6.53;1.10;;;;;;;;;;5045190;28;20395;-80
2022/01/20 15:04:53;;;;;;;8.07;1.20;;;;;;;;;;5028526;28;20028;-81
2022/01/20 15:07:19;;;;;;;1.73;0.55;;;;;;;;;;5046096;28;20071;-80
2022/01/20 15:09:44;;;;;;;7.63;1.50;;;;;;;;;;5027243;28;20053;-80
2022/01/20 15:12:10;;;;;;;5.45;1.30;;;;;;;;;;5043472;28;20017;-80
2022/01/20 15:14:36;;;;;;;12.65;1.67;;;;;;;;;;5042860;28;20041;-79
2022/01/20 15:17:03;;;;;;;9.02;1.27;;;;;;;;;;5041552;28;20029;-81
2022/01/20 15:19:28;;;;;;;11.55;1.30;;;;;;;;;;5044648;28;20021;-80
2022/01/20 15:21:53;;;;;;;4.88;1.10;;;;;;;;;;5026762;28;20056;-79
2022/01/20 15:24:18;;;;;;;6.60;1.00;;;;;;;;;;5042815;28;20029;-80
2022/01/20 15:26:44;;;;;;;5.18;1.05;;;;;;;;;;5026361;28;20029;-79
2022/01/20 15:29:11;;;;;;;14.52;1.42;;;;;;;;;;5026434;28;20475;-81
2022/01/20 15:31:40;;;;;;;5.30;1.30;;;;;;;;;;5041956;28;20108;-78
2022/01/20 15:34:08;;;;;;;3.92;1.30;;;;;;;;;;5043638;28;20123;-82
2022/01/20 15:36:34;;;;;;;10.05;2.03;;;;;;;;;;5043717;28;20454;-80
2022/01/20 15:39:00;;;;;;;7.80;1.08;;;;;;;;;;5044046;28;20085;-80
2022/01/20 15:41:27;;;;;;;6.78;1.20;;;;;;;;;;5042842;28;20059;-79
2022/01/20 15:43:52;;;;;;;11.38;1.25;;;;;;;;;;5042538;28;20025;-79
2022/01/20 15:46:18;;;;;;;4.70;1.08;;;;;;;;;;5044129;28;20082;-80
2022/01/20 15:48:43;;;;;;;3.55;1.17;;;;;;;;;;5043895;28;20505;-78
2022/01/20 15:51:08;;;;;;;6.13;1.05;;;;;;;;;;5043117;28;20394;-79
2022/01/20 15:53:34;;;;;;;7.82;1.50;;;;;;;;;;5027034;28;20094;-80